sensor_id;sensor_type;location;lat;lon;timestamp;P1;durP1;ratioP1;P2;durP2;ratioP2
21843;SDS011;11084;52.482;9.108;2022-08-18T00:01:14;17.07;;;8.70;;
21843;SDS011;11084;52.482;9.108;2022-08-18T00:03:42;13.90;;;8.67;;
21843;SDS011;11084;52.482;9.108;2022-08-18T00:06:09;16.53;;;8.73;;
21843;SDS011;11084;52.482;9.108;2022-08-18T00:08:36;16.30;;;9.07;;
21843;SDS011;11084;52.482;9.108;2022-08-18T00:11:02;17.27;;;8.17;;
21843;SDS011;11084;52.482;9.108;2022-08-18T00:13:28;16.97;;;8.23;;
21843;SDS011;11084;52.482;9.108;2022-08-18T00:15:54;15.47;;;8.70;;
21843;SDS011;11084;52.482;9.108;2022-08-18T00:18:20;15.37;;;8.57;;
21843;SDS011;11084;52.482;9.108;2022-08-18T00:20:46;13.03;;;9.07;;
21843;SDS011;11084;52.482;9.108;2022-08-18T00:23:13;12.93;;;7.93;;
21843;SDS011;11084;52.482;9.108;2022-08-18T00:25:39;12.93;;;8.40;;
21843;SDS011;11084;52.482;9.108;2022-08-18T00:28:05;16.23;;;9.10;;
21843;SDS011;11084;52.482;9.108;2022-08-18T00:30:32;12.13;;;7.60;;
21843;SDS011;11084;52.482;9.108;2022-08-18T00:32:59;13.50;;;8.67;;
21843;SDS011;11084;52.482;9.108;2022-08-18T00:35:29;14.70;;;9.57;;
21843;SDS011;11084;52.482;9.108;2022-08-18T00:38:02;18.27;;;9.13;;
21843;SDS011;11084;52.482;9.108;2022-08-18T00:40:42;13.87;;;8.80;;
21843;SDS011;11084;52.482;9.108;2022-08-18T00:43:15;17.20;;;9.80;;
21843;SDS011;11084;52.482;9.108;2022-08-18T00:45:47;14.73;;;9.20;;
21843;SDS011;11084;52.482;9.108;2022-08-18T00:48:13;17.87;;;9.33;;
21843;SDS011;11084;52.482;9.108;2022-08-18T00:56:20;19.33;;;9.97;;
21843;SDS011;11084;52.482;9.108;2022-08-18T00:58:52;22.83;;;10.37;;
21843;SDS011;11084;52.482;9.108;2022-08-18T01:01:35;17.60;;;10.53;;
21843;SDS011;11084;52.482;9.108;2022-08-18T01:04:10;24.23;;;10.33;;
21843;SDS011;11084;52.482;9.108;2022-08-18T01:06:53;14.07;;;10.27;;
21843;SDS011;11084;52.482;9.108;2022-08-18T01:09:24;16.03;;;10.57;;
21843;SDS011;11084;52.482;9.108;2022-08-18T01:11:51;17.93;;;10.80;;
21843;SDS011;11084;52.482;9.108;2022-08-18T01:14:17;15.57;;;11.03;;
21843;SDS011;11084;52.482;9.108;2022-08-18T01:16:45;16.97;;;10.30;;
21843;SDS011;11084;52.482;9.108;2022-08-18T01:19:32;15.27;;;9.80;;
21843;SDS011;11084;52.482;9.108;2022-08-18T01:22:28;21.10;;;10.43;;
21843;SDS011;11084;52.482;9.108;2022-08-18T01:25:12;20.07;;;10.60;;
21843;SDS011;11084;52.482;9.108;2022-08-18T01:27:59;17.73;;;10.50;;
21843;SDS011;11084;52.482;9.108;2022-08-18T01:30:28;16.33;;;10.13;;
21843;SDS011;11084;52.482;9.108;2022-08-18T01:32:57;18.00;;;10.50;;
21843;SDS011;11084;52.482;9.108;2022-08-18T01:35:24;19.17;;;11.07;;
21843;SDS011;11084;52.482;9.108;2022-08-18T01:37:52;18.97;;;11.00;;
21843;SDS011;11084;52.482;9.108;2022-08-18T01:40:19;15.17;;;10.07;;
21843;SDS011;11084;52.482;9.108;2022-08-18T01:42:48;16.50;;;9.97;;
21843;SDS011;11084;52.482;9.108;2022-08-18T01:45:15;20.67;;;11.40;;
21843;SDS011;11084;52.482;9.108;2022-08-18T01:47:43;17.90;;;10.97;;
21843;SDS011;11084;52.482;9.108;2022-08-18T01:50:09;18.03;;;10.60;;
21843;SDS011;11084;52.482;9.108;2022-08-18T01:52:37;22.00;;;12.10;;
21843;SDS011;11084;52.482;9.108;2022-08-18T01:55:04;22.93;;;11.70;;
21843;SDS011;11084;52.482;9.108;2022-08-18T01:57:36;15.97;;;10.90;;
21843;SDS011;11084;52.482;9.108;2022-08-18T02:00:13;15.73;;;11.37;;
21843;SDS011;11084;52.482;9.108;2022-08-18T02:02:42;16.57;;;12.07;;
21843;SDS011;11084;52.482;9.108;2022-08-18T02:05:10;18.17;;;12.13;;
21843;SDS011;11084;52.482;9.108;2022-08-18T02:07:42;27.43;;;13.47;;
21843;SDS011;11084;52.482;9.108;2022-08-18T02:10:09;22.27;;;13.53;;
21843;SDS011;11084;52.482;9.108;2022-08-18T02:12:36;21.67;;;12.87;;
21843;SDS011;11084;52.482;9.108;2022-08-18T02:15:04;19.93;;;13.27;;
21843;SDS011;11084;52.482;9.108;2022-08-18T02:17:36;21.20;;;14.20;;
21843;SDS011;11084;52.482;9.108;2022-08-18T02:20:04;20.60;;;13.27;;
21843;SDS011;11084;52.482;9.108;2022-08-18T02:22:33;22.70;;;13.77;;
21843;SDS011;11084;52.482;9.108;2022-08-18T02:25:00;21.20;;;13.73;;
21843;SDS011;11084;52.482;9.108;2022-08-18T02:27:26;17.73;;;12.77;;
21843;SDS011;11084;52.482;9.108;2022-08-18T02:29:53;22.03;;;14.03;;
21843;SDS011;11084;52.482;9.108;2022-08-18T02:32:19;23.13;;;14.10;;
21843;SDS011;11084;52.482;9.108;2022-08-18T02:34:45;18.77;;;12.67;;
21843;SDS011;11084;52.482;9.108;2022-08-18T02:37:11;21.73;;;13.23;;
21843;SDS011;11084;52.482;9.108;2022-08-18T02:39:37;22.40;;;14.03;;
21843;SDS011;11084;52.482;9.108;2022-08-18T02:42:04;23.13;;;14.70;;
21843;SDS011;11084;52.482;9.108;2022-08-18T02:44:31;24.33;;;15.00;;
21843;SDS011;11084;52.482;9.108;2022-08-18T02:46:58;23.83;;;14.80;;
21843;SDS011;11084;52.482;9.108;2022-08-18T02:49:25;23.53;;;13.77;;
21843;SDS011;11084;52.482;9.108;2022-08-18T02:51:52;24.30;;;14.73;;
21843;SDS011;11084;52.482;9.108;2022-08-18T02:54:19;18.83;;;13.20;;
21843;SDS011;11084;52.482;9.108;2022-08-18T02:56:47;22.77;;;14.17;;
21843;SDS011;11084;52.482;9.108;2022-08-18T02:59:17;24.00;;;14.27;;
21843;SDS011;11084;52.482;9.108;2022-08-18T03:01:49;28.90;;;15.37;;
21843;SDS011;11084;52.482;9.108;2022-08-18T03:04:19;28.03;;;16.37;;
21843;SDS011;11084;52.482;9.108;2022-08-18T03:06:53;22.50;;;15.77;;
21843;SDS011;11084;52.482;9.108;2022-08-18T03:09:20;24.90;;;15.73;;
21843;SDS011;11084;52.482;9.108;2022-08-18T03:11:47;31.47;;;16.57;;
21843;SDS011;11084;52.482;9.108;2022-08-18T03:14:13;27.80;;;16.17;;
21843;SDS011;11084;52.482;9.108;2022-08-18T03:16:42;29.13;;;16.27;;
21843;SDS011;11084;52.482;9.108;2022-08-18T03:19:10;28.13;;;16.27;;
21843;SDS011;11084;52.482;9.108;2022-08-18T03:21:39;35.10;;;17.80;;
21843;SDS011;11084;52.482;9.108;2022-08-18T03:24:05;29.50;;;17.50;;
21843;SDS011;11084;52.482;9.108;2022-08-18T03:26:34;32.93;;;18.93;;
21843;SDS011;11084;52.482;9.108;2022-08-18T03:29:04;29.70;;;17.50;;
21843;SDS011;11084;52.482;9.108;2022-08-18T03:31:30;29.17;;;17.30;;
21843;SDS011;11084;52.482;9.108;2022-08-18T03:33:57;36.57;;;19.20;;
21843;SDS011;11084;52.482;9.108;2022-08-18T03:36:27;31.07;;;17.47;;
21843;SDS011;11084;52.482;9.108;2022-08-18T03:39:00;30.93;;;17.27;;
21843;SDS011;11084;52.482;9.108;2022-08-18T03:41:30;31.53;;;17.57;;
21843;SDS011;11084;52.482;9.108;2022-08-18T03:43:56;27.47;;;16.87;;
21843;SDS011;11084;52.482;9.108;2022-08-18T03:46:22;35.30;;;17.63;;
21843;SDS011;11084;52.482;9.108;2022-08-18T03:48:49;27.57;;;17.33;;
21843;SDS011;11084;52.482;9.108;2022-08-18T03:53:47;31.57;;;17.73;;
21843;SDS011;11084;52.482;9.108;2022-08-18T03:56:15;28.47;;;16.40;;
21843;SDS011;11084;52.482;9.108;2022-08-18T03:59:23;26.80;;;15.57;;
21843;SDS011;11084;52.482;9.108;2022-08-18T04:01:45;23.10;;;15.50;;
21843;SDS011;11084;52.482;9.108;2022-08-18T04:04:15;29.87;;;15.73;;
21843;SDS011;11084;52.482;9.108;2022-08-18T04:06:46;36.47;;;17.73;;
21843;SDS011;11084;52.482;9.108;2022-08-18T04:09:24;28.90;;;16.90;;
21843;SDS011;11084;52.482;9.108;2022-08-18T04:11:53;26.90;;;16.23;;
21843;SDS011;11084;52.482;9.108;2022-08-18T04:14:21;30.70;;;18.13;;
21843;SDS011;11084;52.482;9.108;2022-08-18T04:16:53;28.50;;;17.23;;
21843;SDS011;11084;52.482;9.108;2022-08-18T04:19:18;35.40;;;18.37;;
21843;SDS011;11084;52.482;9.108;2022-08-18T04:21:45;30.23;;;17.50;;
21843;SDS011;11084;52.482;9.108;2022-08-18T04:24:12;31.20;;;18.50;;
21843;SDS011;11084;52.482;9.108;2022-08-18T04:26:41;38.10;;;20.17;;
21843;SDS011;11084;52.482;9.108;2022-08-18T04:29:10;29.27;;;17.90;;
21843;SDS011;11084;52.482;9.108;2022-08-18T04:31:42;34.80;;;20.33;;
21843;SDS011;11084;52.482;9.108;2022-08-18T04:34:09;36.80;;;20.23;;
21843;SDS011;11084;52.482;9.108;2022-08-18T04:36:36;30.70;;;18.63;;
21843;SDS011;11084;52.482;9.108;2022-08-18T04:39:03;32.63;;;18.50;;
21843;SDS011;11084;52.482;9.108;2022-08-18T04:41:32;32.20;;;18.50;;
21843;SDS011;11084;52.482;9.108;2022-08-18T04:44:00;36.97;;;19.33;;
21843;SDS011;11084;52.482;9.108;2022-08-18T04:46:43;39.50;;;19.80;;
21843;SDS011;11084;52.482;9.108;2022-08-18T04:49:13;35.80;;;18.93;;
21843;SDS011;11084;52.482;9.108;2022-08-18T04:51:43;33.77;;;19.07;;
21843;SDS011;11084;52.482;9.108;2022-08-18T04:54:33;32.60;;;18.00;;
21843;SDS011;11084;52.482;9.108;2022-08-18T04:57:12;32.60;;;18.83;;
21843;SDS011;11084;52.482;9.108;2022-08-18T04:59:42;38.03;;;19.17;;
21843;SDS011;11084;52.482;9.108;2022-08-18T05:02:12;36.50;;;18.83;;
21843;SDS011;11084;52.482;9.108;2022-08-18T05:04:41;33.63;;;18.53;;
21843;SDS011;11084;52.482;9.108;2022-08-18T05:07:11;31.87;;;18.50;;
21843;SDS011;11084;52.482;9.108;2022-08-18T05:09:40;32.70;;;18.80;;
21843;SDS011;11084;52.482;9.108;2022-08-18T05:12:08;33.60;;;18.97;;
21843;SDS011;11084;52.482;9.108;2022-08-18T05:14:38;34.17;;;18.40;;
21843;SDS011;11084;52.482;9.108;2022-08-18T05:17:05;33.93;;;19.77;;
21843;SDS011;11084;52.482;9.108;2022-08-18T05:19:31;35.53;;;18.93;;
21843;SDS011;11084;52.482;9.108;2022-08-18T05:22:01;35.17;;;17.97;;
21843;SDS011;11084;52.482;9.108;2022-08-18T05:24:28;34.97;;;19.23;;
21843;SDS011;11084;52.482;9.108;2022-08-18T05:26:57;38.33;;;19.03;;
21843;SDS011;11084;52.482;9.108;2022-08-18T05:29:23;31.33;;;18.47;;
21843;SDS011;11084;52.482;9.108;2022-08-18T05:31:50;35.37;;;19.57;;
21843;SDS011;11084;52.482;9.108;2022-08-18T05:34:17;37.63;;;19.00;;
21843;SDS011;11084;52.482;9.108;2022-08-18T05:36:52;34.37;;;19.33;;
21843;SDS011;11084;52.482;9.108;2022-08-18T05:39:37;31.97;;;19.07;;
21843;SDS011;11084;52.482;9.108;2022-08-18T05:42:17;38.10;;;19.97;;
21843;SDS011;11084;52.482;9.108;2022-08-18T05:44:47;38.57;;;19.83;;
21843;SDS011;11084;52.482;9.108;2022-08-18T05:47:16;38.27;;;20.37;;
21843;SDS011;11084;52.482;9.108;2022-08-18T05:49:57;39.83;;;20.27;;
21843;SDS011;11084;52.482;9.108;2022-08-18T05:52:39;36.60;;;20.47;;
21843;SDS011;11084;52.482;9.108;2022-08-18T05:55:16;38.80;;;21.20;;
21843;SDS011;11084;52.482;9.108;2022-08-18T05:58:31;45.90;;;21.73;;
21843;SDS011;11084;52.482;9.108;2022-08-18T06:01:10;44.60;;;22.43;;
21843;SDS011;11084;52.482;9.108;2022-08-18T06:03:49;40.60;;;21.70;;
21843;SDS011;11084;52.482;9.108;2022-08-18T06:06:21;47.27;;;23.30;;
21843;SDS011;11084;52.482;9.108;2022-08-18T06:08:57;43.30;;;21.83;;
21843;SDS011;11084;52.482;9.108;2022-08-18T06:11:40;39.53;;;20.70;;
21843;SDS011;11084;52.482;9.108;2022-08-18T06:14:06;49.33;;;23.30;;
21843;SDS011;11084;52.482;9.108;2022-08-18T06:16:47;48.20;;;23.33;;
21843;SDS011;11084;52.482;9.108;2022-08-18T06:26:10;40.87;;;22.50;;
21843;SDS011;11084;52.482;9.108;2022-08-18T06:37:34;47.53;;;22.70;;
21843;SDS011;11084;52.482;9.108;2022-08-18T06:40:31;38.27;;;22.23;;
21843;SDS011;11084;52.482;9.108;2022-08-18T06:42:59;40.43;;;21.60;;
21843;SDS011;11084;52.482;9.108;2022-08-18T06:45:28;38.07;;;21.47;;
21843;SDS011;11084;52.482;9.108;2022-08-18T06:50:57;38.40;;;20.20;;
21843;SDS011;11084;52.482;9.108;2022-08-18T06:56:34;35.63;;;20.27;;
21843;SDS011;11084;52.482;9.108;2022-08-18T07:02:41;38.37;;;19.90;;
21843;SDS011;11084;52.482;9.108;2022-08-18T07:05:06;34.47;;;19.90;;
21843;SDS011;11084;52.482;9.108;2022-08-18T07:07:40;46.53;;;20.73;;
21843;SDS011;11084;52.482;9.108;2022-08-18T07:12:38;36.80;;;19.60;;
21843;SDS011;11084;52.482;9.108;2022-08-18T07:15:05;35.80;;;19.57;;
21843;SDS011;11084;52.482;9.108;2022-08-18T07:17:33;41.60;;;19.63;;
21843;SDS011;11084;52.482;9.108;2022-08-18T07:20:08;37.70;;;19.20;;
21843;SDS011;11084;52.482;9.108;2022-08-18T07:22:52;31.83;;;18.30;;
21843;SDS011;11084;52.482;9.108;2022-08-18T07:25:25;33.73;;;18.70;;
21843;SDS011;11084;52.482;9.108;2022-08-18T07:28:02;37.77;;;18.67;;
21843;SDS011;11084;52.482;9.108;2022-08-18T07:30:31;33.07;;;17.83;;
21843;SDS011;11084;52.482;9.108;2022-08-18T07:36:01;38.53;;;18.90;;
21843;SDS011;11084;52.482;9.108;2022-08-18T07:47:20;27.50;;;16.57;;
21843;SDS011;11084;52.482;9.108;2022-08-18T07:50:12;29.97;;;15.83;;
21843;SDS011;11084;52.482;9.108;2022-08-18T07:53:22;23.67;;;15.33;;
21843;SDS011;11084;52.482;9.108;2022-08-18T07:55:36;23.23;;;14.63;;
21843;SDS011;11084;52.482;9.108;2022-08-18T08:00:57;22.53;;;13.77;;
21843;SDS011;11084;52.482;9.108;2022-08-18T08:04:02;21.40;;;13.20;;
21843;SDS011;11084;52.482;9.108;2022-08-18T08:06:43;23.23;;;12.70;;
21843;SDS011;11084;52.482;9.108;2022-08-18T08:12:56;22.10;;;12.83;;
21843;SDS011;11084;52.482;9.108;2022-08-18T08:15:40;26.13;;;12.60;;
21843;SDS011;11084;52.482;9.108;2022-08-18T08:21:36;21.87;;;12.50;;
21843;SDS011;11084;52.482;9.108;2022-08-18T08:24:30;18.90;;;11.13;;
21843;SDS011;11084;52.482;9.108;2022-08-18T08:27:14;18.77;;;11.57;;
21843;SDS011;11084;52.482;9.108;2022-08-18T08:30:08;16.60;;;11.17;;
21843;SDS011;11084;52.482;9.108;2022-08-18T08:35:18;16.93;;;9.97;;
21843;SDS011;11084;52.482;9.108;2022-08-18T08:37:58;16.53;;;9.37;;
21843;SDS011;11084;52.482;9.108;2022-08-18T08:40:53;15.40;;;10.47;;
21843;SDS011;11084;52.482;9.108;2022-08-18T08:43:39;13.57;;;8.20;;
21843;SDS011;11084;52.482;9.108;2022-08-18T08:46:16;14.30;;;8.97;;
21843;SDS011;11084;52.482;9.108;2022-08-18T08:48:53;15.20;;;8.97;;
21843;SDS011;11084;52.482;9.108;2022-08-18T08:54:21;15.37;;;9.10;;
21843;SDS011;11084;52.482;9.108;2022-08-18T08:56:54;14.83;;;9.53;;
21843;SDS011;11084;52.482;9.108;2022-08-18T08:59:24;13.07;;;8.23;;
21843;SDS011;11084;52.482;9.108;2022-08-18T09:08:27;11.47;;;8.00;;
21843;SDS011;11084;52.482;9.108;2022-08-18T09:10:55;18.60;;;8.70;;
21843;SDS011;11084;52.482;9.108;2022-08-18T09:22:03;15.90;;;9.03;;
21843;SDS011;11084;52.482;9.108;2022-08-18T09:24:48;10.83;;;6.87;;
21843;SDS011;11084;52.482;9.108;2022-08-18T09:30:06;13.17;;;7.10;;
21843;SDS011;11084;52.482;9.108;2022-08-18T09:33:16;9.67;;;6.77;;
21843;SDS011;11084;52.482;9.108;2022-08-18T09:39:28;8.97;;;6.60;;
21843;SDS011;11084;52.482;9.108;2022-08-18T09:42:27;11.60;;;7.00;;
21843;SDS011;11084;52.482;9.108;2022-08-18T09:45:07;12.30;;;7.10;;
21843;SDS011;11084;52.482;9.108;2022-08-18T09:47:58;11.53;;;7.00;;
21843;SDS011;11084;52.482;9.108;2022-08-18T09:50:31;13.93;;;7.40;;
21843;SDS011;11084;52.482;9.108;2022-08-18T09:53:34;12.40;;;7.40;;
21843;SDS011;11084;52.482;9.108;2022-08-18T10:07:43;24.93;;;6.03;;
21843;SDS011;11084;52.482;9.108;2022-08-18T10:20:58;8.10;;;5.50;;
21843;SDS011;11084;52.482;9.108;2022-08-18T10:29:00;16.13;;;6.53;;
21843;SDS011;11084;52.482;9.108;2022-08-18T10:42:05;7.23;;;5.53;;
21843;SDS011;11084;52.482;9.108;2022-08-18T10:44:47;14.83;;;5.80;;
21843;SDS011;11084;52.482;9.108;2022-08-18T10:47:22;9.67;;;5.00;;
21843;SDS011;11084;52.482;9.108;2022-08-18T10:49:54;11.33;;;5.03;;
21843;SDS011;11084;52.482;9.108;2022-08-18T10:55:29;10.27;;;5.20;;
21843;SDS011;11084;52.482;9.108;2022-08-18T11:01:06;8.13;;;5.30;;
21843;SDS011;11084;52.482;9.108;2022-08-18T11:06:56;11.10;;;4.73;;
21843;SDS011;11084;52.482;9.108;2022-08-18T11:09:36;13.63;;;4.83;;
21843;SDS011;11084;52.482;9.108;2022-08-18T11:12:04;12.17;;;5.87;;
21843;SDS011;11084;52.482;9.108;2022-08-18T11:20:22;15.07;;;5.90;;
21843;SDS011;11084;52.482;9.108;2022-08-18T11:22:56;10.47;;;6.00;;
21843;SDS011;11084;52.482;9.108;2022-08-18T11:25:30;9.77;;;5.27;;
21843;SDS011;11084;52.482;9.108;2022-08-18T11:28:00;11.93;;;5.73;;
21843;SDS011;11084;52.482;9.108;2022-08-18T11:30:29;12.27;;;5.73;;
21843;SDS011;11084;52.482;9.108;2022-08-18T11:33:02;9.60;;;5.43;;
21843;SDS011;11084;52.482;9.108;2022-08-18T11:35:33;12.83;;;5.50;;
21843;SDS011;11084;52.482;9.108;2022-08-18T11:38:22;7.93;;;4.60;;
21843;SDS011;11084;52.482;9.108;2022-08-18T11:40:49;7.97;;;5.00;;
21843;SDS011;11084;52.482;9.108;2022-08-18T11:43:29;11.80;;;5.33;;
21843;SDS011;11084;52.482;9.108;2022-08-18T11:45:59;8.57;;;5.30;;
21843;SDS011;11084;52.482;9.108;2022-08-18T11:48:44;7.50;;;4.67;;
21843;SDS011;11084;52.482;9.108;2022-08-18T11:51:24;10.70;;;4.70;;
21843;SDS011;11084;52.482;9.108;2022-08-18T11:53:59;10.03;;;4.33;;
21843;SDS011;11084;52.482;9.108;2022-08-18T11:56:46;7.53;;;4.03;;
21843;SDS011;11084;52.482;9.108;2022-08-18T12:09:21;5.80;;;3.40;;
21843;SDS011;11084;52.482;9.108;2022-08-18T12:12:00;6.53;;;3.10;;
21843;SDS011;11084;52.482;9.108;2022-08-18T12:14:32;4.60;;;3.27;;
21843;SDS011;11084;52.482;9.108;2022-08-18T12:17:16;8.17;;;3.30;;
21843;SDS011;11084;52.482;9.108;2022-08-18T12:19:43;6.63;;;3.50;;
21843;SDS011;11084;52.482;9.108;2022-08-18T12:22:17;7.25;;;3.08;;
21843;SDS011;11084;52.482;9.108;2022-08-18T12:24:46;7.03;;;3.30;;
21843;SDS011;11084;52.482;9.108;2022-08-18T12:27:14;7.18;;;3.03;;
21843;SDS011;11084;52.482;9.108;2022-08-18T12:29:42;9.93;;;3.17;;
21843;SDS011;11084;52.482;9.108;2022-08-18T12:32:08;4.25;;;2.95;;
21843;SDS011;11084;52.482;9.108;2022-08-18T12:34:38;4.60;;;2.85;;
21843;SDS011;11084;52.482;9.108;2022-08-18T12:37:06;5.80;;;2.85;;
21843;SDS011;11084;52.482;9.108;2022-08-18T12:39:35;5.82;;;3.10;;
21843;SDS011;11084;52.482;9.108;2022-08-18T12:42:02;3.28;;;2.92;;
21843;SDS011;11084;52.482;9.108;2022-08-18T12:44:29;12.20;;;2.92;;
21843;SDS011;11084;52.482;9.108;2022-08-18T12:46:54;6.18;;;3.38;;
21843;SDS011;11084;52.482;9.108;2022-08-18T12:49:22;4.70;;;3.05;;
21843;SDS011;11084;52.482;9.108;2022-08-18T12:51:50;2.70;;;2.30;;
21843;SDS011;11084;52.482;9.108;2022-08-18T12:54:17;5.05;;;2.95;;
21843;SDS011;11084;52.482;9.108;2022-08-18T12:56:44;6.25;;;2.83;;
21843;SDS011;11084;52.482;9.108;2022-08-18T12:59:13;3.50;;;2.60;;
21843;SDS011;11084;52.482;9.108;2022-08-18T13:01:40;3.38;;;2.63;;
21843;SDS011;11084;52.482;9.108;2022-08-18T13:04:06;5.50;;;2.55;;
21843;SDS011;11084;52.482;9.108;2022-08-18T13:06:33;5.43;;;2.90;;
21843;SDS011;11084;52.482;9.108;2022-08-18T13:09:03;9.32;;;3.35;;
21843;SDS011;11084;52.482;9.108;2022-08-18T13:11:29;6.93;;;3.17;;
21843;SDS011;11084;52.482;9.108;2022-08-18T13:13:55;8.27;;;2.70;;
21843;SDS011;11084;52.482;9.108;2022-08-18T13:16:21;5.00;;;2.50;;
21843;SDS011;11084;52.482;9.108;2022-08-18T13:18:49;10.80;;;2.70;;
21843;SDS011;11084;52.482;9.108;2022-08-18T13:21:15;10.90;;;2.85;;
21843;SDS011;11084;52.482;9.108;2022-08-18T13:23:43;6.15;;;2.83;;
21843;SDS011;11084;52.482;9.108;2022-08-18T13:26:12;6.05;;;2.63;;
21843;SDS011;11084;52.482;9.108;2022-08-18T13:28:57;5.47;;;2.67;;
21843;SDS011;11084;52.482;9.108;2022-08-18T13:31:24;5.47;;;2.80;;
21843;SDS011;11084;52.482;9.108;2022-08-18T13:33:52;5.40;;;2.20;;
21843;SDS011;11084;52.482;9.108;2022-08-18T13:36:20;3.28;;;2.13;;
21843;SDS011;11084;52.482;9.108;2022-08-18T13:38:48;5.22;;;2.47;;
21843;SDS011;11084;52.482;9.108;2022-08-18T13:41:17;10.60;;;2.78;;
21843;SDS011;11084;52.482;9.108;2022-08-18T13:43:43;4.03;;;2.58;;
21843;SDS011;11084;52.482;9.108;2022-08-18T13:46:10;3.78;;;2.22;;
21843;SDS011;11084;52.482;9.108;2022-08-18T13:48:40;4.13;;;2.33;;
21843;SDS011;11084;52.482;9.108;2022-08-18T13:51:07;4.07;;;2.45;;
21843;SDS011;11084;52.482;9.108;2022-08-18T13:53:36;4.85;;;2.38;;
21843;SDS011;11084;52.482;9.108;2022-08-18T13:56:04;4.53;;;2.45;;
21843;SDS011;11084;52.482;9.108;2022-08-18T13:58:30;2.58;;;2.28;;
21843;SDS011;11084;52.482;9.108;2022-08-18T14:00:57;2.65;;;2.42;;
21843;SDS011;11084;52.482;9.108;2022-08-18T14:03:26;3.28;;;2.58;;
21843;SDS011;11084;52.482;9.108;2022-08-18T14:05:53;4.15;;;2.60;;
21843;SDS011;11084;52.482;9.108;2022-08-18T14:08:22;9.52;;;2.25;;
21843;SDS011;11084;52.482;9.108;2022-08-18T14:10:50;7.80;;;3.22;;
21843;SDS011;11084;52.482;9.108;2022-08-18T14:13:20;2.80;;;2.10;;
21843;SDS011;11084;52.482;9.108;2022-08-18T14:15:51;4.88;;;2.78;;
21843;SDS011;11084;52.482;9.108;2022-08-18T14:18:18;9.18;;;2.80;;
21843;SDS011;11084;52.482;9.108;2022-08-18T14:20:44;4.32;;;2.45;;
21843;SDS011;11084;52.482;9.108;2022-08-18T14:23:29;10.52;;;2.53;;
21843;SDS011;11084;52.482;9.108;2022-08-18T14:26:13;8.93;;;2.30;;
21843;SDS011;11084;52.482;9.108;2022-08-18T14:28:58;4.13;;;2.45;;
21843;SDS011;11084;52.482;9.108;2022-08-18T14:31:24;3.25;;;2.47;;
21843;SDS011;11084;52.482;9.108;2022-08-18T14:33:51;10.25;;;2.35;;
21843;SDS011;11084;52.482;9.108;2022-08-18T14:36:17;3.13;;;2.30;;
21843;SDS011;11084;52.482;9.108;2022-08-18T14:38:43;7.70;;;2.20;;
21843;SDS011;11084;52.482;9.108;2022-08-18T14:41:10;5.85;;;2.65;;
21843;SDS011;11084;52.482;9.108;2022-08-18T14:43:38;4.47;;;2.17;;
21843;SDS011;11084;52.482;9.108;2022-08-18T14:46:04;4.10;;;2.70;;
21843;SDS011;11084;52.482;9.108;2022-08-18T14:48:31;7.38;;;2.53;;
21843;SDS011;11084;52.482;9.108;2022-08-18T14:50:58;4.00;;;2.08;;
21843;SDS011;11084;52.482;9.108;2022-08-18T14:53:27;3.88;;;2.70;;
21843;SDS011;11084;52.482;9.108;2022-08-18T14:55:55;5.53;;;2.10;;
21843;SDS011;11084;52.482;9.108;2022-08-18T14:58:23;2.60;;;2.25;;
21843;SDS011;11084;52.482;9.108;2022-08-18T15:00:55;5.97;;;2.00;;
21843;SDS011;11084;52.482;9.108;2022-08-18T15:03:25;6.32;;;2.60;;
21843;SDS011;11084;52.482;9.108;2022-08-18T15:05:53;7.00;;;2.17;;
21843;SDS011;11084;52.482;9.108;2022-08-18T15:08:19;3.67;;;2.00;;
21843;SDS011;11084;52.482;9.108;2022-08-18T15:10:46;3.80;;;2.30;;
21843;SDS011;11084;52.482;9.108;2022-08-18T15:13:12;3.25;;;2.20;;
21843;SDS011;11084;52.482;9.108;2022-08-18T15:15:39;7.72;;;2.72;;
21843;SDS011;11084;52.482;9.108;2022-08-18T15:18:06;10.48;;;2.53;;
21843;SDS011;11084;52.482;9.108;2022-08-18T15:20:32;13.05;;;2.50;;
21843;SDS011;11084;52.482;9.108;2022-08-18T15:23:18;5.22;;;1.92;;
21843;SDS011;11084;52.482;9.108;2022-08-18T15:26:03;2.63;;;1.73;;
21843;SDS011;11084;52.482;9.108;2022-08-18T15:28:29;3.53;;;2.17;;
21843;SDS011;11084;52.482;9.108;2022-08-18T15:30:56;5.43;;;2.03;;
21843;SDS011;11084;52.482;9.108;2022-08-18T15:33:22;3.85;;;2.00;;
21843;SDS011;11084;52.482;9.108;2022-08-18T15:35:50;4.32;;;2.17;;
21843;SDS011;11084;52.482;9.108;2022-08-18T15:38:18;5.68;;;2.05;;
21843;SDS011;11084;52.482;9.108;2022-08-18T15:40:49;7.57;;;2.50;;
21843;SDS011;11084;52.482;9.108;2022-08-18T15:43:24;2.97;;;2.15;;
21843;SDS011;11084;52.482;9.108;2022-08-18T15:45:53;4.15;;;2.10;;
21843;SDS011;11084;52.482;9.108;2022-08-18T15:48:20;10.18;;;2.75;;
21843;SDS011;11084;52.482;9.108;2022-08-18T15:50:48;6.10;;;2.20;;
21843;SDS011;11084;52.482;9.108;2022-08-18T15:53:16;3.50;;;2.30;;
21843;SDS011;11084;52.482;9.108;2022-08-18T15:55:46;8.88;;;2.70;;
21843;SDS011;11084;52.482;9.108;2022-08-18T15:58:13;5.73;;;2.93;;
21843;SDS011;11084;52.482;9.108;2022-08-18T16:00:44;9.30;;;2.97;;
21843;SDS011;11084;52.482;9.108;2022-08-18T16:03:13;7.33;;;2.20;;
21843;SDS011;11084;52.482;9.108;2022-08-18T16:05:48;3.73;;;2.10;;
21843;SDS011;11084;52.482;9.108;2022-08-18T16:08:22;10.90;;;2.53;;
21843;SDS011;11084;52.482;9.108;2022-08-18T16:10:50;6.60;;;2.60;;
21843;SDS011;11084;52.482;9.108;2022-08-18T16:13:17;3.33;;;2.20;;
21843;SDS011;11084;52.482;9.108;2022-08-18T16:15:44;3.13;;;2.20;;
21843;SDS011;11084;52.482;9.108;2022-08-18T16:18:13;5.73;;;2.57;;
21843;SDS011;11084;52.482;9.108;2022-08-18T16:20:42;4.27;;;2.43;;
21843;SDS011;11084;52.482;9.108;2022-08-18T16:23:09;4.30;;;2.50;;
21843;SDS011;11084;52.482;9.108;2022-08-18T16:25:37;2.77;;;2.00;;
21843;SDS011;11084;52.482;9.108;2022-08-18T16:28:07;4.67;;;2.13;;
21843;SDS011;11084;52.482;9.108;2022-08-18T16:30:34;14.80;;;2.30;;
21843;SDS011;11084;52.482;9.108;2022-08-18T16:33:01;3.47;;;2.00;;
21843;SDS011;11084;52.482;9.108;2022-08-18T16:35:30;2.67;;;2.13;;
21843;SDS011;11084;52.482;9.108;2022-08-18T16:38:00;6.07;;;2.30;;
21843;SDS011;11084;52.482;9.108;2022-08-18T16:40:30;6.53;;;2.13;;
21843;SDS011;11084;52.482;9.108;2022-08-18T16:42:56;4.77;;;2.63;;
21843;SDS011;11084;52.482;9.108;2022-08-18T16:45:24;7.00;;;2.47;;
21843;SDS011;11084;52.482;9.108;2022-08-18T16:47:52;4.67;;;2.27;;
21843;SDS011;11084;52.482;9.108;2022-08-18T16:50:19;4.23;;;2.60;;
21843;SDS011;11084;52.482;9.108;2022-08-18T16:52:45;4.67;;;2.13;;
21843;SDS011;11084;52.482;9.108;2022-08-18T16:55:11;4.20;;;2.37;;
21843;SDS011;11084;52.482;9.108;2022-08-18T16:57:41;7.33;;;2.50;;
21843;SDS011;11084;52.482;9.108;2022-08-18T17:00:27;7.80;;;3.00;;
21843;SDS011;11084;52.482;9.108;2022-08-18T17:03:16;6.43;;;2.70;;
21843;SDS011;11084;52.482;9.108;2022-08-18T17:06:04;6.70;;;2.20;;
21843;SDS011;11084;52.482;9.108;2022-08-18T17:08:38;5.53;;;2.90;;
21843;SDS011;11084;52.482;9.108;2022-08-18T17:11:07;4.17;;;2.40;;
21843;SDS011;11084;52.482;9.108;2022-08-18T17:13:37;8.37;;;2.60;;
21843;SDS011;11084;52.482;9.108;2022-08-18T17:16:04;3.97;;;2.60;;
21843;SDS011;11084;52.482;9.108;2022-08-18T17:18:32;6.43;;;2.57;;
21843;SDS011;11084;52.482;9.108;2022-08-18T17:21:07;5.43;;;2.87;;
21843;SDS011;11084;52.482;9.108;2022-08-18T17:23:36;8.20;;;3.30;;
21843;SDS011;11084;52.482;9.108;2022-08-18T17:26:02;4.33;;;2.33;;
21843;SDS011;11084;52.482;9.108;2022-08-18T17:28:44;6.87;;;2.73;;